Time;durP1;ratioP1;P1;durP2;ratioP2;P2;SDS_P1;SDS_P2;PMS_P1;PMS_P2;Temp;Humidity;BMP_temperature;BMP_pressure;BME280_temperature;BME280_humidity;BME280_pressure;Samples;Min_cycle;Max_cycle;Signal;HPM_P1;HPM_P2
2022/05/08 00:00:24;;;;;;;11.63;2.17;;;8.00;99.90;;;;;;5055789;28;20176;-76
2022/05/08 00:02:52;;;;;;;12.13;1.97;;;8.00;99.90;;;;;;5055739;28;20172;-76
2022/05/08 00:05:18;;;;;;;6.20;1.67;;;8.00;99.90;;;;;;5055602;28;20347;-77
2022/05/08 00:07:44;;;;;;;8.80;2.40;;;7.90;99.90;;;;;;5055710;28;20503;-77
2022/05/08 00:10:09;;;;;;;6.13;1.33;;;7.90;99.90;;;;;;5055561;28;20517;-78
2022/05/08 00:12:36;;;;;;;7.93;2.00;;;7.90;99.90;;;;;;5055206;28;20166;-77
2022/05/08 00:15:02;;;;;;;7.60;1.37;;;7.90;99.90;;;;;;5037689;28;20175;-77
2022/05/08 00:17:29;;;;;;;8.60;1.10;;;7.90;99.90;;;;;;5055439;28;20404;-77
2022/05/08 00:19:55;;;;;;;6.90;2.17;;;7.80;99.90;;;;;;5037486;28;20956;-77
2022/05/08 00:22:21;;;;;;;8.90;1.60;;;7.70;99.90;;;;;;5054917;28;20505;-77
2022/05/08 00:24:46;;;;;;;9.30;2.67;;;7.60;99.90;;;;;;5055200;28;20883;-77
2022/05/08 00:27:12;;;;;;;3.67;1.60;;;7.50;99.90;;;;;;5054950;28;20183;-77
2022/05/08 00:29:37;;;;;;;5.27;1.73;;;7.40;99.90;;;;;;5055256;28;20170;-77
2022/05/08 00:32:03;;;;;;;7.23;2.23;;;7.40;99.90;;;;;;5055175;28;20262;-77
2022/05/08 00:34:29;;;;;;;4.83;1.57;;;7.30;99.90;;;;;;5055121;28;20713;-78
2022/05/08 00:36:54;;;;;;;13.60;1.87;;;7.30;99.90;;;;;;5055150;28;20223;-76
2022/05/08 00:39:20;;;;;;;7.43;2.40;;;7.20;99.90;;;;;;5055062;28;20745;-76
2022/05/08 00:41:46;;;;;;;11.77;2.50;;;7.20;99.90;;;;;;5054711;28;20177;-77
2022/05/08 00:44:13;;;;;;;10.17;1.63;;;7.20;99.90;;;;;;5054754;28;20444;-76
2022/05/08 00:46:38;;;;;;;6.20;1.60;;;7.20;99.90;;;;;;5055015;28;20491;-77
2022/05/08 00:49:10;;;;;;;7.30;1.30;;;7.20;99.90;;;;;;5054591;28;20520;-76
2022/05/08 00:51:36;;;;;;;12.03;2.40;;;7.20;99.90;;;;;;5054848;28;20166;-77
2022/05/08 00:54:03;;;;;;;7.87;2.80;;;7.10;99.90;;;;;;5054784;28;20462;-77
2022/05/08 00:56:29;;;;;;;5.83;1.83;;;7.00;99.90;;;;;;5054765;28;20166;-76
2022/05/08 00:58:56;;;;;;;11.17;2.23;;;7.00;99.90;;;;;;5054325;28;20409;-76
2022/05/08 01:01:22;;;;;;;7.47;2.27;;;6.90;99.90;;;;;;5054693;28;20469;-76
2022/05/08 01:03:48;;;;;;;11.47;2.17;;;6.90;99.90;;;;;;5054575;28;20419;-77
2022/05/08 01:06:15;;;;;;;14.73;1.67;;;6.90;99.90;;;;;;5036677;28;20477;-76
2022/05/08 01:08:43;;;;;;;4.13;0.80;;;6.80;99.90;;;;;;5036746;28;20178;-76
2022/05/08 01:11:09;;;;;;;4.83;1.10;;;6.70;99.90;;;;;;5054481;28;20929;-76
2022/05/08 01:13:36;;;;;;;7.27;1.50;;;6.60;99.90;;;;;;5054009;28;20416;-76
2022/05/08 01:16:05;;;;;;;4.83;1.80;;;6.70;99.90;;;;;;5054380;28;20463;-76
2022/05/08 01:18:30;;;;;;;4.87;1.80;;;6.70;99.90;;;;;;5054345;28;20416;-76
2022/05/08 01:20:55;;;;;;;7.53;1.37;;;6.60;99.90;;;;;;5054319;28;20412;-76
2022/05/08 01:23:24;;;;;;;10.13;2.20;;;6.50;99.90;;;;;;5054243;28;20205;-76
2022/05/08 01:25:54;;;;;;;9.50;1.90;;;6.50;99.90;;;;;;5054154;28;20642;-77
2022/05/08 01:28:22;;;;;;;7.90;2.07;;;6.60;99.90;;;;;;5053624;28;20408;-77
2022/05/08 01:30:50;;;;;;;10.20;1.53;;;6.70;99.90;;;;;;5054063;28;20420;-77
2022/05/08 01:33:16;;;;;;;9.27;1.87;;;6.60;99.90;;;;;;5054061;28;20893;-77
2022/05/08 01:35:42;;;;;;;7.80;1.13;;;6.50;99.90;;;;;;5053073;28;20431;-80
2022/05/08 01:38:09;;;;;;;7.03;1.10;;;6.50;99.90;;;;;;5051836;28;20436;-77
2022/05/08 01:40:35;;;;;;;8.60;1.90;;;6.40;99.90;;;;;;5062959;28;20430;-77
2022/05/08 01:43:01;;;;;;;8.70;1.27;;;6.30;99.90;;;;;;5053332;28;20503;-78
2022/05/08 01:45:26;;;;;;;8.47;1.70;;;6.30;99.90;;;;;;5053351;28;20484;-77
2022/05/08 01:50:40;;;;;;;7.03;1.73;;;6.20;99.90;;;;;;5053558;28;20334;-77
2022/05/08 01:53:06;;;;;;;5.40;1.27;;;6.10;99.90;;;;;;5035378;28;21263;-77
2022/05/08 01:55:31;;;;;;;4.30;1.30;;;6.10;99.90;;;;;;5053432;28;20802;-77
2022/05/08 01:57:58;;;;;;;6.93;2.40;;;6.10;99.90;;;;;;5035007;28;20420;-77
2022/05/08 02:00:28;;;;;;;8.03;1.43;;;6.00;99.90;;;;;;5053258;28;20528;-78
2022/05/08 02:02:57;;;;;;;9.80;1.13;;;5.90;99.90;;;;;;5053252;28;20419;-77
2022/05/08 02:05:25;;;;;;;9.93;1.50;;;5.90;99.90;;;;;;5053166;28;20467;-77
2022/05/08 02:07:51;;;;;;;7.37;1.40;;;5.90;99.90;;;;;;5053051;28;20550;-77
2022/05/08 02:10:17;;;;;;;5.50;1.23;;;5.80;99.90;;;;;;5053078;28;20510;-77
2022/05/08 02:12:44;;;;;;;4.60;1.00;;;5.80;99.90;;;;;;5050901;28;20204;-78
2022/05/08 02:15:14;;;;;;;11.03;1.60;;;5.80;99.90;;;;;;5052393;28;20424;-78
2022/05/08 02:17:40;;;;;;;5.27;1.40;;;5.70;99.90;;;;;;5052971;28;20419;-77
2022/05/08 02:20:07;;;;;;;7.90;2.27;;;5.80;99.90;;;;;;5052837;28;20416;-77
2022/05/08 02:22:34;;;;;;;6.53;1.33;;;5.70;99.90;;;;;;5052814;28;20173;-77
2022/05/08 02:25:00;;;;;;;5.70;1.33;;;5.70;99.90;;;;;;5052823;28;20501;-77
2022/05/08 02:27:25;;;;;;;8.17;1.23;;;5.70;99.90;;;;;;5052473;28;20436;-77
2022/05/08 02:29:51;;;;;;;7.10;1.77;;;5.60;99.90;;;;;;5052517;28;20421;-77
2022/05/08 02:32:18;;;;;;;4.20;1.00;;;5.60;99.90;;;;;;5052582;28;20170;-77
2022/05/08 02:34:44;;;;;;;4.60;1.83;;;5.50;99.90;;;;;;5052580;28;20923;-77
2022/05/08 02:37:10;;;;;;;7.13;1.43;;;5.50;99.90;;;;;;5052632;28;20995;-77
2022/05/08 02:39:36;;;;;;;6.27;1.33;;;5.50;99.90;;;;;;5034778;28;20456;-76
2022/05/08 02:42:02;;;;;;;5.03;1.33;;;5.40;99.90;;;;;;5052373;28;20440;-76
2022/05/08 02:44:28;;;;;;;9.50;2.70;;;5.40;99.90;;;;;;5052334;28;20526;-77
2022/05/08 02:46:53;;;;;;;7.00;0.87;;;5.40;99.90;;;;;;5052514;28;20420;-77
2022/05/08 02:49:19;;;;;;;5.53;1.87;;;5.30;99.90;;;;;;5052531;28;20169;-77
2022/05/08 02:51:44;;;;;;;12.83;2.10;;;5.30;99.90;;;;;;5052535;28;20174;-76
2022/05/08 02:54:10;;;;;;;6.60;1.47;;;5.30;99.90;;;;;;5052649;28;20181;-76
2022/05/08 02:59:21;;;;;;;8.37;1.17;;;5.20;99.90;;;;;;5031071;28;20668;-76
2022/05/08 03:01:47;;;;;;;5.17;0.93;;;5.20;99.90;;;;;;5034644;28;20420;-76
2022/05/08 03:04:12;;;;;;;4.40;1.47;;;5.20;99.90;;;;;;5052475;28;20256;-76
2022/05/08 03:06:38;;;;;;;5.53;2.07;;;5.10;99.90;;;;;;5052444;28;20208;-77
2022/05/08 03:09:04;;;;;;;6.77;1.70;;;5.10;99.90;;;;;;5052561;28;20161;-76
2022/05/08 03:11:30;;;;;;;8.20;2.00;;;5.10;99.90;;;;;;5052022;28;20196;-77
2022/05/08 03:13:57;;;;;;;7.70;1.53;;;5.10;99.90;;;;;;5052477;28;20408;-76
2022/05/08 03:16:23;;;;;;;5.27;1.70;;;5.10;99.90;;;;;;5052301;28;20201;-76
2022/05/08 03:18:49;;;;;;;4.73;1.57;;;5.10;99.90;;;;;;5052138;28;20454;-77
2022/05/08 03:21:15;;;;;;;9.47;2.80;;;5.10;99.90;;;;;;5052339;28;20465;-79
2022/05/08 03:23:42;;;;;;;6.93;1.50;;;5.10;99.90;;;;;;5052266;28;20173;-77
2022/05/08 03:26:08;;;;;;;4.80;1.70;;;5.10;99.90;;;;;;5052238;28;20535;-77
2022/05/08 03:28:35;;;;;;;7.63;1.87;;;5.10;99.90;;;;;;5052101;28;20426;-77
2022/05/08 03:31:04;;;;;;;4.87;1.30;;;5.10;99.90;;;;;;5052187;28;20412;-77
2022/05/08 03:33:30;;;;;;;4.70;0.90;;;5.00;99.90;;;;;;5052220;28;20439;-76
2022/05/08 03:35:56;;;;;;;4.87;0.80;;;5.00;99.90;;;;;;5052077;28;20521;-79
2022/05/08 03:38:21;;;;;;;4.00;1.00;;;5.00;99.90;;;;;;5052061;28;20420;-77
2022/05/08 03:40:47;;;;;;;6.07;1.40;;;4.90;99.90;;;;;;5052024;28;20173;-76
2022/05/08 03:43:13;;;;;;;5.03;1.07;;;4.90;99.90;;;;;;5051638;28;20170;-76
2022/05/08 03:45:43;;;;;;;4.73;1.37;;;4.90;99.90;;;;;;5033926;28;20700;-76
2022/05/08 03:48:08;;;;;;;15.27;2.30;;;4.90;99.90;;;;;;5052061;28;20166;-77
2022/05/08 03:50:35;;;;;;;4.93;0.90;;;4.90;99.90;;;;;;5052131;28;20408;-76
2022/05/08 03:53:04;;;;;;;8.60;1.63;;;4.80;99.90;;;;;;5051912;28;20189;-77
2022/05/08 03:55:29;;;;;;;6.00;1.30;;;4.90;99.90;;;;;;5051939;28;20563;-76
2022/05/08 03:57:55;;;;;;;7.53;2.20;;;4.90;99.90;;;;;;5052689;28;20848;-78
2022/05/08 04:00:21;;;;;;;17.37;1.60;;;4.90;99.90;;;;;;5055593;28;20180;-77
2022/05/08 04:02:47;;;;;;;4.20;1.20;;;4.90;99.90;;;;;;5055502;28;20631;-78
2022/05/08 04:05:12;;;;;;;5.60;1.60;;;4.80;99.90;;;;;;5055477;28;20481;-77
2022/05/08 04:07:38;;;;;;;3.63;1.53;;;4.90;99.90;;;;;;5055359;28;20174;-77
2022/05/08 04:10:05;;;;;;;10.27;1.60;;;4.80;99.90;;;;;;5055507;28;20202;-77
2022/05/08 04:12:31;;;;;;;6.83;1.70;;;4.80;99.90;;;;;;5054958;28;20173;-76
2022/05/08 04:16:15;;;;;;;2.40;1.30;;;4.80;99.90;;;;;;5055267;28;20483;-78
2022/05/08 04:17:51;;;;;;;4.90;1.73;;;4.90;99.90;;;;;;5055097;28;20224;-81
2022/05/08 04:20:17;;;;;;;5.90;1.30;;;4.90;99.90;;;;;;5055175;28;20412;-78
2022/05/08 04:25:27;;;;;;;10.73;2.70;;;4.90;99.90;;;;;;5055152;28;20224;-82
2022/05/08 04:27:52;;;;;;;7.20;1.57;;;5.00;99.90;;;;;;5054727;28;20412;-77
2022/05/08 04:30:18;;;;;;;8.43;1.70;;;5.10;99.90;;;;;;5037162;28;20170;-76
2022/05/08 04:32:46;;;;;;;9.03;3.93;;;5.10;99.90;;;;;;5054924;28;20166;-76
2022/05/08 04:35:11;;;;;;;7.97;1.70;;;5.20;99.90;;;;;;5054866;28;20205;-76
2022/05/08 04:37:37;;;;;;;4.30;1.40;;;5.30;99.90;;;;;;5054577;28;20419;-80
2022/05/08 04:40:03;;;;;;;8.07;1.90;;;5.40;99.90;;;;;;5067091;28;20634;-77
2022/05/08 04:42:28;;;;;;;4.47;1.40;;;5.40;99.90;;;;;;5036677;28;20178;-77
2022/05/08 04:44:55;;;;;;;7.63;1.80;;;5.50;99.90;;;;;;5036739;28;20575;-77
2022/05/08 04:47:23;;;;;;;5.20;1.63;;;5.70;99.90;;;;;;5054680;28;20177;-77
2022/05/08 04:49:48;;;;;;;4.53;1.63;;;5.70;99.90;;;;;;5036698;28;20982;-77
2022/05/08 04:52:14;;;;;;;7.47;2.13;;;5.90;99.90;;;;;;5036862;28;20520;-77
2022/05/08 04:54:39;;;;;;;10.60;3.13;;;6.00;99.90;;;;;;5054503;28;20205;-77
2022/05/08 04:57:05;;;;;;;8.03;1.80;;;6.00;99.90;;;;;;5054253;28;20205;-76
2022/05/08 04:59:30;;;;;;;6.03;1.53;;;6.20;99.90;;;;;;5054519;28;20177;-77
2022/05/08 05:01:57;;;;;;;7.27;1.37;;;6.20;99.90;;;;;;5054414;28;20248;-79
2022/05/08 05:04:22;;;;;;;11.00;3.47;;;6.40;99.90;;;;;;5054347;28;20166;-77
2022/05/08 05:06:49;;;;;;;6.30;1.83;;;6.40;99.90;;;;;;5054334;28;20511;-77
2022/05/08 05:09:17;;;;;;;8.87;1.70;;;6.60;99.90;;;;;;5035597;28;20584;-79
2022/05/08 05:11:42;;;;;;;11.60;3.50;;;6.70;99.90;;;;;;5053947;28;20447;-79
2022/05/08 05:14:08;;;;;;;7.97;2.80;;;6.80;99.90;;;;;;5036338;28;20912;-77
2022/05/08 05:16:34;;;;;;;6.97;1.13;;;7.00;99.90;;;;;;5053993;28;20255;-76
2022/05/08 05:18:59;;;;;;;8.30;2.20;;;7.10;99.90;;;;;;5054110;28;20410;-76
2022/05/08 05:21:25;;;;;;;11.70;1.90;;;7.30;99.90;;;;;;5054133;28;20165;-77
2022/05/08 05:23:50;;;;;;;9.03;1.40;;;7.50;99.90;;;;;;5054073;28;20313;-76
2022/05/08 05:26:16;;;;;;;7.37;1.50;;;7.80;99.90;;;;;;5053669;28;20219;-77
2022/05/08 05:28:44;;;;;;;6.20;1.50;;;8.00;99.90;;;;;;5053927;28;20654;-77
2022/05/08 05:31:09;;;;;;;5.60;1.80;;;8.30;99.90;;;;;;5053898;28;20177;-80
2022/05/08 05:33:35;;;;;;;7.73;1.80;;;8.60;99.90;;;;;;5053595;28;20910;-78
2022/05/08 05:36:00;;;;;;;7.03;1.13;;;9.00;99.90;;;;;;5053576;28;20218;-77
2022/05/08 05:38:26;;;;;;;5.40;0.70;;;9.10;62.20;;;;;;5053821;28;20164;-77
2022/05/08 05:40:51;;;;;;;5.57;0.67;;;9.50;23.70;;;;;;5053244;28;20186;-78
2022/05/08 05:43:17;;;;;;;11.80;1.10;;;9.80;1.00;;;;;;5053646;28;20168;-79
2022/05/08 05:45:42;;;;;;;9.23;1.50;;;10.10;1.00;;;;;;5053313;28;20227;-79
2022/05/08 05:48:09;;;;;;;13.53;1.87;;;10.30;99.90;;;;;;5053393;28;20540;-79
2022/05/08 05:50:35;;;;;;;5.07;1.00;;;10.60;99.90;;;;;;5053557;28;20645;-78
2022/05/08 05:53:00;;;;;;;5.10;0.87;;;10.70;1.00;;;;;;5053420;28;20418;-78
2022/05/08 05:55:26;;;;;;;6.27;1.03;;;11.00;1.00;;;;;;5053311;28;20205;-82
2022/05/08 05:57:52;;;;;;;3.60;1.17;;;11.20;99.90;;;;;;5052998;28;20300;-78
2022/05/08 06:00:20;;;;;;;7.30;2.30;;;11.40;1.00;;;;;;5053240;28;20171;-78
2022/05/08 06:02:47;;;;;;;8.43;1.10;;;11.70;1.00;;;;;;5053144;28;20701;-77
2022/05/08 06:05:14;;;;;;;7.90;1.67;;;12.10;1.00;;;;;;5053335;28;20418;-80
2022/05/08 06:07:41;;;;;;;4.93;1.30;;;12.20;1.00;;;;;;5053167;28;20420;-81
2022/05/08 06:10:11;;;;;;;9.30;1.53;;;12.60;1.00;;;;;;5053052;28;20421;-78
2022/05/08 06:12:37;;;;;;;5.03;1.03;;;13.00;99.90;;;;;;5052655;28;20996;-81
2022/05/08 06:15:05;;;;;;;6.77;0.83;;;13.80;99.90;;;;;;5053099;28;20478;-81
2022/05/08 06:17:30;;;;;;;8.40;1.53;;;14.50;99.90;;;;;;5053021;28;20180;-81
2022/05/08 06:19:59;;;;;;;6.10;0.97;;;15.20;99.90;;;;;;5052922;28;20478;-81
2022/05/08 06:22:24;;;;;;;6.43;0.60;;;15.70;97.60;;;;;;5052731;28;20535;-80
2022/05/08 06:24:50;;;;;;;10.47;1.40;;;16.20;64.40;;;;;;5052892;28;20420;-81
2022/05/08 06:27:15;;;;;;;2.40;1.07;;;16.40;28.30;;;;;;5052526;28;20248;-81
2022/05/08 06:29:41;;;;;;;5.70;1.47;;;16.80;22.90;;;;;;5052897;28;20165;-80
2022/05/08 06:32:07;;;;;;;9.13;1.27;;;17.20;8.80;;;;;;5052678;28;20167;-81
2022/05/08 06:34:33;;;;;;;6.10;0.83;;;17.30;1.00;;;;;;5052834;28;20204;-80
2022/05/08 06:36:59;;;;;;;6.67;1.27;;;17.10;1.00;;;;;;5034645;28;20424;-82
2022/05/08 06:39:26;;;;;;;8.07;1.57;;;17.30;1.00;;;;;;5052470;28;20415;-81
2022/05/08 06:41:51;;;;;;;6.70;1.90;;;17.80;1.00;;;;;;5052605;28;20184;-81
2022/05/08 06:44:17;;;;;;;5.40;1.67;;;18.20;1.00;;;;;;5052638;28;20829;-80
2022/05/08 06:46:42;;;;;;;9.33;1.80;;;18.10;1.00;;;;;;5052740;28;20169;-80
2022/05/08 06:49:09;;;;;;;9.20;1.33;;;18.50;1.00;;;;;;5035052;28;20722;-78
2022/05/08 06:51:34;;;;;;;6.97;1.53;;;18.40;1.00;;;;;;5052686;28;20645;-83
2022/05/08 06:54:01;;;;;;;5.30;0.60;;;18.70;1.00;;;;;;5063815;28;20482;-82
2022/05/08 06:56:30;;;;;;;4.27;1.13;;;19.10;1.00;;;;;;5071256;28;21002;-82
2022/05/08 07:01:42;;;;;;;9.13;1.70;;;18.80;1.00;;;;;;5051703;28;20943;-83
2022/05/08 07:04:09;;;;;;;5.90;1.60;;;19.10;1.00;;;;;;5051679;28;21071;-81
2022/05/08 07:06:36;;;;;;;6.50;1.43;;;19.30;1.00;;;;;;5051129;28;20453;-83
2022/05/08 07:09:03;;;;;;;7.27;1.43;;;19.60;1.00;;;;;;5050590;28;20426;-84
2022/05/08 07:11:30;;;;;;;7.33;1.70;;;19.50;1.00;;;;;;5051275;28;20415;-82
2022/05/08 07:13:56;;;;;;;7.70;1.83;;;19.70;1.00;;;;;;5034010;28;20799;-82
2022/05/08 07:16:22;;;;;;;6.23;1.60;;;19.70;1.00;;;;;;5051465;28;20831;-82
2022/05/08 07:18:48;;;;;;;7.33;1.40;;;20.30;1.00;;;;;;5051619;28;20506;-82
2022/05/08 07:21:13;;;;;;;6.67;1.33;;;20.40;1.00;;;;;;5051796;28;20188;-83
2022/05/08 07:23:39;;;;;;;9.20;1.40;;;20.10;1.00;;;;;;5051536;28;20180;-82
2022/05/08 07:26:08;;;;;;;5.33;1.80;;;20.30;1.00;;;;;;5051361;28;20238;-80
2022/05/08 07:28:34;;;;;;;8.57;1.97;;;20.20;1.00;;;;;;5052120;28;20573;-79
2022/05/08 07:31:01;;;;;;;5.13;1.40;;;20.30;1.00;;;;;;5052271;28;20497;-80
2022/05/08 07:33:29;;;;;;;6.10;1.60;;;19.80;1.00;;;;;;5054258;28;20589;-80
2022/05/08 07:36:12;;;;;;;6.10;1.43;;;20.20;1.00;;;;;;5056366;28;20471;-80
2022/05/08 07:38:42;;;;;;;4.90;1.30;;;19.70;1.00;;;;;;5056190;28;20421;-80
2022/05/08 07:41:09;;;;;;;5.57;1.67;;;20.10;1.00;;;;;;5056538;28;20478;-81
2022/05/08 07:43:35;;;;;;;6.03;1.87;;;20.60;1.00;;;;;;5056277;28;20426;-80
2022/05/08 07:46:00;;;;;;;8.50;1.10;;;20.50;1.00;;;;;;5055994;28;20472;-81
2022/05/08 07:48:26;;;;;;;10.13;1.57;;;20.90;1.00;;;;;;5038141;28;20271;-80
2022/05/08 07:50:52;;;;;;;5.50;1.77;;;21.40;1.00;;;;;;5056021;28;20249;-79
2022/05/08 07:53:18;;;;;;;9.90;1.70;;;21.20;1.00;;;;;;5056171;28;20169;-79
2022/05/08 07:55:51;;;;;;;7.50;1.60;;;21.10;1.00;;;;;;5055632;28;20607;-80
2022/05/08 07:58:24;;;;;;;9.00;2.60;;;20.70;1.00;;;;;;5055807;28;20416;-80
2022/05/08 08:00:53;;;;;;;8.13;1.63;;;20.90;1.00;;;;;;5055717;28;20479;-80
2022/05/08 08:03:22;;;;;;;8.33;1.50;;;21.30;1.00;;;;;;5055957;28;20486;-80
2022/05/08 08:05:48;;;;;;;8.00;1.80;;;21.40;1.00;;;;;;5055770;28;20423;-80
2022/05/08 08:08:16;;;;;;;10.40;2.03;;;21.80;1.00;;;;;;5055679;28;20970;-80
2022/05/08 08:10:41;;;;;;;4.57;1.30;;;21.80;1.00;;;;;;5055423;28;20428;-80
2022/05/08 08:13:07;;;;;;;7.67;1.53;;;22.30;1.00;;;;;;5055734;28;20754;-80
2022/05/08 08:15:33;;;;;;;4.57;1.23;;;22.30;1.00;;;;;;5055489;28;20304;-80
2022/05/08 08:17:59;;;;;;;8.13;1.53;;;21.50;1.00;;;;;;5055706;28;20169;-80
2022/05/08 08:20:24;;;;;;;5.13;1.13;;;21.60;1.00;;;;;;5055586;28;20773;-79
2022/05/08 08:22:50;;;;;;;7.23;1.80;;;21.70;1.00;;;;;;5055368;28;20268;-80
2022/05/08 08:25:15;;;;;;;7.13;1.10;;;21.90;1.00;;;;;;5037698;28;20209;-80
2022/05/08 08:27:41;;;;;;;9.57;1.97;;;22.40;1.00;;;;;;5055044;28;20170;-80
2022/05/08 08:30:07;;;;;;;7.00;1.30;;;22.40;1.00;;;;;;5055570;28;20169;-80
2022/05/08 08:32:33;;;;;;;4.30;1.10;;;22.60;1.00;;;;;;5055433;28;20448;-80
2022/05/08 08:34:59;;;;;;;7.93;2.00;;;22.20;1.00;;;;;;5055175;28;20834;-79
2022/05/08 08:37:24;;;;;;;6.67;1.70;;;22.20;1.00;;;;;;5055127;28;20178;-80
2022/05/08 08:39:50;;;;;;;6.10;1.17;;;22.70;1.00;;;;;;5054977;28;20178;-80
2022/05/08 08:42:28;;;;;;;9.10;1.87;;;23.10;1.00;;;;;;5036974;28;20272;-79
2022/05/08 08:48:05;;;;;;;6.63;2.03;;;22.70;1.00;;;;;;5055577;28;20416;-79
2022/05/08 08:50:32;;;;;;;4.07;1.17;;;22.60;1.00;;;;;;5054777;28;20408;-79
2022/05/08 08:53:00;;;;;;;6.87;1.30;;;22.80;1.00;;;;;;5054512;28;20483;-79
2022/05/08 08:55:26;;;;;;;5.77;1.53;;;23.30;1.00;;;;;;5054200;28;20424;-79
2022/05/08 08:57:52;;;;;;;5.00;1.97;;;23.30;1.00;;;;;;5053566;28;20429;-79
2022/05/08 09:00:19;;;;;;;7.07;1.63;;;23.00;1.00;;;;;;5054559;28;20423;-78
2022/05/08 09:02:47;;;;;;;9.27;1.87;;;22.30;1.00;;;;;;5036842;28;20429;-79
2022/05/08 09:05:13;;;;;;;5.50;1.53;;;23.30;1.00;;;;;;5054585;28;20475;-79
2022/05/08 09:07:46;;;;;;;7.07;0.93;;;22.90;1.00;;;;;;5054414;28;20412;-80
2022/05/08 09:10:16;;;;;;;6.03;1.90;;;22.70;1.00;;;;;;5054197;28;20176;-79
2022/05/08 09:12:45;;;;;;;6.07;1.57;;;22.40;1.00;;;;;;5054521;28;20408;-79
2022/05/08 09:15:25;;;;;;;6.20;1.80;;;22.80;1.00;;;;;;5054508;28;20466;-79
2022/05/08 09:17:54;;;;;;;8.70;2.43;;;23.40;1.00;;;;;;5054397;28;20490;-79
2022/05/08 09:20:39;;;;;;;5.70;1.70;;;23.40;1.00;;;;;;5054353;28;20416;-79
2022/05/08 09:23:20;;;;;;;5.57;1.77;;;23.40;1.00;;;;;;5054372;28;20823;-79
2022/05/08 09:26:02;;;;;;;7.53;1.73;;;23.30;1.00;;;;;;5053925;28;20476;-79
2022/05/08 09:28:43;;;;;;;7.70;1.67;;;23.70;1.00;;;;;;5054226;28;20412;-79
2022/05/08 09:31:16;;;;;;;5.80;1.70;;;23.70;1.00;;;;;;5054093;28;20946;-79
2022/05/08 09:33:51;;;;;;;5.30;1.60;;;23.90;1.00;;;;;;5054087;28;20412;-79
2022/05/08 09:36:17;;;;;;;5.60;1.63;;;24.00;1.00;;;;;;5054057;28;20403;-79
2022/05/08 09:38:43;;;;;;;8.83;1.67;;;23.70;1.00;;;;;;5035927;28;20420;-79
2022/05/08 09:41:09;;;;;;;6.63;2.10;;;23.40;1.00;;;;;;5053693;28;20416;-79
2022/05/08 09:43:35;;;;;;;7.17;1.53;;;23.40;1.00;;;;;;5053825;28;20244;-79
2022/05/08 09:46:03;;;;;;;8.03;2.20;;;23.20;1.00;;;;;;5053574;28;20559;-79
2022/05/08 09:48:30;;;;;;;9.07;1.60;;;23.50;1.00;;;;;;5053833;28;20162;-78
2022/05/08 09:50:58;;;;;;;7.63;1.63;;;24.00;1.00;;;;;;5053677;28;20511;-81
2022/05/08 09:53:24;;;;;;;6.77;1.80;;;23.00;1.00;;;;;;5053759;28;20416;-78
2022/05/08 09:55:52;;;;;;;7.53;1.90;;;23.50;1.00;;;;;;5052530;28;20424;-79
2022/05/08 09:58:18;;;;;;;4.53;1.37;;;23.30;1.00;;;;;;5053528;28;20447;-79
2022/05/08 10:00:45;;;;;;;6.53;1.47;;;23.20;1.00;;;;;;5053352;28;20829;-79
2022/05/08 10:03:11;;;;;;;3.83;1.57;;;23.80;1.00;;;;;;5053491;28;20174;-79
2022/05/08 10:05:37;;;;;;;6.40;1.63;;;23.90;1.00;;;;;;5053395;28;20479;-79
2022/05/08 10:08:04;;;;;;;8.13;1.70;;;23.90;1.00;;;;;;5053353;28;20506;-79
2022/05/08 10:14:07;;;;;;;3.53;1.60;;;23.40;1.00;;;;;;5053260;28;20461;-79
2022/05/08 10:16:52;;;;;;;7.67;1.77;;;23.70;1.00;;;;;;5052864;28;20985;-80
2022/05/08 10:19:37;;;;;;;9.40;2.70;;;24.20;1.00;;;;;;5052981;28;20419;-79
2022/05/08 10:22:10;;;;;;;6.53;1.67;;;24.20;1.00;;;;;;5052823;28;20427;-79
2022/05/08 10:24:54;;;;;;;9.50;2.67;;;23.70;1.00;;;;;;5052805;28;20957;-79
2022/05/08 10:27:32;;;;;;;4.80;1.57;;;23.70;1.00;;;;;;5052473;28;20432;-80
2022/05/08 10:30:04;;;;;;;4.70;1.43;;;23.60;1.00;;;;;;5052950;28;20424;-80
2022/05/08 10:32:33;;;;;;;7.90;2.40;;;23.00;1.00;;;;;;5052654;28;20416;-79
2022/05/08 10:35:19;;;;;;;5.67;1.63;;;23.70;1.00;;;;;;5052836;28;20759;-80
2022/05/08 10:37:52;;;;;;;4.93;1.60;;;23.90;1.00;;;;;;5052593;28;20900;-79
2022/05/08 10:40:23;;;;;;;6.10;1.93;;;24.10;1.00;;;;;;5061343;28;20782;-80
2022/05/08 10:42:55;;;;;;;7.23;1.90;;;23.70;1.00;;;;;;5052935;28;20439;-80
2022/05/08 10:45:32;;;;;;;5.93;1.77;;;23.60;1.00;;;;;;5052225;28;20859;-80
2022/05/08 10:48:15;;;;;;;4.87;2.47;;;23.60;1.00;;;;;;5052490;28;20413;-79
2022/05/08 10:50:49;;;;;;;8.03;2.83;;;23.60;1.00;;;;;;5052717;28;20412;-79
2022/05/08 10:53:32;;;;;;;5.80;1.80;;;23.50;1.00;;;;;;5052528;28;20455;-79
2022/05/08 10:56:09;;;;;;;7.97;2.30;;;24.30;1.00;;;;;;5052196;28;20503;-79
2022/05/08 10:58:37;;;;;;;6.00;1.90;;;24.70;1.00;;;;;;5052642;28;20408;-79
2022/05/08 11:01:05;;;;;;;6.67;2.50;;;24.70;1.00;;;;;;5052475;28;20413;-79
2022/05/08 11:03:35;;;;;;;3.90;1.60;;;24.50;1.00;;;;;;5052375;28;20447;-79
2022/05/08 11:06:05;;;;;;;6.30;1.73;;;24.80;1.00;;;;;;5052424;28;20482;-78
2022/05/08 11:08:33;;;;;;;5.13;1.80;;;24.40;1.00;;;;;;5056303;28;20422;-80
2022/05/08 11:11:07;;;;;;;6.90;2.10;;;24.40;1.00;;;;;;5054575;28;20428;-79
2022/05/08 11:13:48;;;;;;;6.63;2.17;;;24.30;1.00;;;;;;5054958;28;20846;-81
2022/05/08 11:16:36;;;;;;;6.00;1.57;;;24.80;1.00;;;;;;5056487;28;20939;-81
2022/05/08 11:19:03;;;;;;;5.87;2.20;;;24.40;1.00;;;;;;5056542;28;20495;-81
2022/05/08 11:21:29;;;;;;;6.10;2.30;;;24.00;1.00;;;;;;5056302;28;20925;-81
2022/05/08 11:23:55;;;;;;;5.30;2.13;;;23.60;1.00;;;;;;5055831;28;20411;-80
2022/05/08 11:26:28;;;;;;;10.30;1.97;;;24.00;1.00;;;;;;5055289;28;20205;-79
2022/05/08 11:28:55;;;;;;;6.10;1.70;;;24.60;1.00;;;;;;5035754;28;20235;-80
2022/05/08 11:31:23;;;;;;;5.67;2.80;;;24.40;1.00;;;;;;5066084;28;20510;-80
2022/05/08 11:36:36;;;;;;;5.60;2.60;;;24.40;1.00;;;;;;5056342;28;20465;-80
2022/05/08 11:39:21;;;;;;;3.53;1.40;;;24.00;1.00;;;;;;5056132;28;20412;-81
2022/05/08 11:41:49;;;;;;;6.07;2.27;;;23.90;1.00;;;;;;5055384;28;20507;-81
2022/05/08 11:44:14;;;;;;;4.57;2.07;;;23.90;1.00;;;;;;5055670;28;20416;-81
2022/05/08 11:46:44;;;;;;;7.30;2.43;;;23.40;1.00;;;;;;5056131;28;20478;-81
2022/05/08 11:49:21;;;;;;;7.60;2.30;;;24.30;1.00;;;;;;5038255;28;20177;-81
2022/05/08 11:51:58;;;;;;;8.60;2.20;;;23.80;1.00;;;;;;5038111;28;20430;-81
2022/05/08 11:54:33;;;;;;;3.63;1.10;;;24.00;1.00;;;;;;5056003;28;20442;-81
2022/05/08 11:57:23;;;;;;;5.97;2.27;;;23.60;1.00;;;;;;5038174;28;20427;-81
2022/05/08 11:59:50;;;;;;;9.50;2.00;;;24.20;1.00;;;;;;5038100;28;20452;-80
2022/05/08 12:02:16;;;;;;;6.23;2.17;;;24.60;1.00;;;;;;5055891;28;20464;-81
2022/05/08 12:05:01;;;;;;;4.77;2.13;;;24.30;1.00;;;;;;5055875;28;20408;-81
2022/05/08 12:07:38;;;;;;;5.33;2.23;;;23.20;1.00;;;;;;5056134;28;20776;-81
2022/05/08 12:10:04;;;;;;;9.03;2.30;;;23.90;1.00;;;;;;5055578;28;20831;-81
2022/05/08 12:12:33;;;;;;;8.40;2.57;;;23.70;1.00;;;;;;5054344;28;20424;-81
2022/05/08 12:15:17;;;;;;;7.47;1.70;;;23.30;1.00;;;;;;5055531;28;20416;-80
2022/05/08 12:17:43;;;;;;;8.80;1.80;;;23.70;1.00;;;;;;5055441;28;20408;-81
2022/05/08 12:20:11;;;;;;;4.70;1.87;;;24.00;1.00;;;;;;5054611;28;20412;-81
2022/05/08 12:22:37;;;;;;;4.53;2.10;;;24.30;1.00;;;;;;5055418;28;20162;-81
2022/05/08 12:25:04;;;;;;;5.73;2.30;;;24.00;1.00;;;;;;5053677;28;20467;-81
2022/05/08 12:27:30;;;;;;;5.43;1.80;;;23.80;1.00;;;;;;5055223;28;20184;-82
2022/05/08 12:29:55;;;;;;;5.03;2.17;;;23.50;1.00;;;;;;5055255;28;20416;-81
2022/05/08 12:32:22;;;;;;;4.67;1.57;;;23.90;1.00;;;;;;5055361;28;20525;-80
2022/05/08 12:34:48;;;;;;;5.30;2.07;;;24.30;1.00;;;;;;5055217;28;20935;-80
2022/05/08 12:37:16;;;;;;;6.23;2.10;;;23.70;1.00;;;;;;5055157;28;20912;-84
2022/05/08 12:39:43;;;;;;;5.63;2.50;;;24.40;1.00;;;;;;5054303;28;20419;-82
2022/05/08 12:42:09;;;;;;;4.43;1.90;;;24.50;1.00;;;;;;5055117;28;20416;-82
2022/05/08 12:44:36;;;;;;;5.17;1.83;;;24.10;1.00;;;;;;5054720;28;20468;-83
2022/05/08 12:47:06;;;;;;;7.30;1.80;;;23.90;1.00;;;;;;5055023;28;20419;-80
2022/05/08 12:49:36;;;;;;;4.23;1.60;;;24.30;1.00;;;;;;5054961;28;20434;-80
2022/05/08 12:52:06;;;;;;;9.60;2.37;;;23.90;1.00;;;;;;5054747;28;20458;-81
2022/05/08 12:54:32;;;;;;;8.30;2.00;;;24.20;1.00;;;;;;5054235;28;20412;-80
2022/05/08 12:57:06;;;;;;;5.60;2.27;;;23.70;1.00;;;;;;5054384;28;20408;-80
2022/05/08 12:59:49;;;;;;;6.30;2.03;;;24.00;1.00;;;;;;5054880;28;20411;-80
2022/05/08 13:02:16;;;;;;;6.17;1.90;;;23.50;1.00;;;;;;5054725;28;20483;-79
2022/05/08 13:04:44;;;;;;;4.50;2.13;;;24.30;1.00;;;;;;5054483;28;20943;-81
2022/05/08 13:07:11;;;;;;;4.90;2.20;;;23.70;1.00;;;;;;5054455;28;20944;-81
2022/05/08 13:09:37;;;;;;;6.87;1.87;;;23.70;1.00;;;;;;5054156;28;20404;-79
2022/05/08 13:12:04;;;;;;;5.67;1.97;;;23.60;1.00;;;;;;5054436;28;20423;-82
2022/05/08 13:14:30;;;;;;;8.20;1.90;;;23.90;1.00;;;;;;5054296;28;20201;-81
2022/05/08 13:17:00;;;;;;;6.30;2.30;;;23.60;1.00;;;;;;5054309;28;20427;-79
2022/05/08 13:19:29;;;;;;;6.50;2.30;;;21.80;1.00;;;;;;5054145;28;20909;-80